sensor_id;sensor_type;location;lat;lon;timestamp;temperature;humidity
20858;DHT22;10589;53.636;10.012;2023-04-25T03:46:11;4.90;99.90
20858;DHT22;10589;53.636;10.012;2023-04-25T03:48:37;4.90;99.90
20858;DHT22;10589;53.636;10.012;2023-04-25T03:51:03;4.90;99.90
20858;DHT22;10589;53.636;10.012;2023-04-25T03:53:28;4.80;99.90
20858;DHT22;10589;53.636;10.012;2023-04-25T03:55:54;4.90;99.90
20858;DHT22;10589;53.636;10.012;2023-04-25T03:58:19;4.90;99.90
20858;DHT22;10589;53.636;10.012;2023-04-25T04:00:45;5.00;99.90
20858;DHT22;10589;53.636;10.012;2023-04-25T04:03:10;5.00;99.90
20858;DHT22;10589;53.636;10.012;2023-04-25T04:05:36;5.00;99.90
20858;DHT22;10589;53.636;10.012;2023-04-25T04:08:02;5.10;99.90
20858;DHT22;10589;53.636;10.012;2023-04-25T04:10:28;5.20;99.90
20858;DHT22;10589;53.636;10.012;2023-04-25T04:12:53;5.30;99.90
20858;DHT22;10589;53.636;10.012;2023-04-25T04:15:19;5.20;99.90
20858;DHT22;10589;53.636;10.012;2023-04-25T04:17:45;5.20;99.90
20858;DHT22;10589;53.636;10.012;2023-04-25T04:20:12;5.20;99.90
20858;DHT22;10589;53.636;10.012;2023-04-25T04:22:37;5.20;99.90
20858;DHT22;10589;53.636;10.012;2023-04-25T04:25:03;5.10;99.90
20858;DHT22;10589;53.636;10.012;2023-04-25T04:27:31;5.10;99.90
20858;DHT22;10589;53.636;10.012;2023-04-25T04:29:57;5.00;99.90
20858;DHT22;10589;53.636;10.012;2023-04-25T04:32:23;5.00;99.90
20858;DHT22;10589;53.636;10.012;2023-04-25T04:34:49;5.10;99.90
20858;DHT22;10589;53.636;10.012;2023-04-25T04:37:14;5.20;99.90
20858;DHT22;10589;53.636;10.012;2023-04-25T04:39:40;5.20;99.90
20858;DHT22;10589;53.636;10.012;2023-04-25T04:42:06;5.20;99.90
20858;DHT22;10589;53.636;10.012;2023-04-25T04:44:32;5.40;99.90
20858;DHT22;10589;53.636;10.012;2023-04-25T04:46:59;5.50;99.90
20858;DHT22;10589;53.636;10.012;2023-04-25T04:49:24;5.50;99.90
20858;DHT22;10589;53.636;10.012;2023-04-25T04:51:50;5.60;99.90
20858;DHT22;10589;53.636;10.012;2023-04-25T04:54:16;5.70;99.90
20858;DHT22;10589;53.636;10.012;2023-04-25T04:56:41;5.70;99.90
20858;DHT22;10589;53.636;10.012;2023-04-25T04:59:07;5.70;99.90
20858;DHT22;10589;53.636;10.012;2023-04-25T05:01:33;5.80;99.90
20858;DHT22;10589;53.636;10.012;2023-04-25T05:04:00;5.80;99.90
20858;DHT22;10589;53.636;10.012;2023-04-25T05:06:27;5.90;99.90
20858;DHT22;10589;53.636;10.012;2023-04-25T05:08:54;6.00;99.90
20858;DHT22;10589;53.636;10.012;2023-04-25T05:11:20;6.00;99.90
20858;DHT22;10589;53.636;10.012;2023-04-25T05:13:46;6.10;99.90
20858;DHT22;10589;53.636;10.012;2023-04-25T05:16:12;6.10;99.90
20858;DHT22;10589;53.636;10.012;2023-04-25T05:18:39;6.00;99.90
20858;DHT22;10589;53.636;10.012;2023-04-25T05:21:05;5.90;99.90
20858;DHT22;10589;53.636;10.012;2023-04-25T05:23:32;5.80;99.90
20858;DHT22;10589;53.636;10.012;2023-04-25T05:25:58;5.70;99.90
20858;DHT22;10589;53.636;10.012;2023-04-25T05:28:24;5.70;99.90
20858;DHT22;10589;53.636;10.012;2023-04-25T05:30:49;5.70;99.90
20858;DHT22;10589;53.636;10.012;2023-04-25T05:33:15;5.70;99.90
20858;DHT22;10589;53.636;10.012;2023-04-25T05:35:41;5.70;99.90
20858;DHT22;10589;53.636;10.012;2023-04-25T05:38:07;5.80;99.90
20858;DHT22;10589;53.636;10.012;2023-04-25T05:40:32;5.90;99.90
20858;DHT22;10589;53.636;10.012;2023-04-25T05:42:58;5.90;99.90
20858;DHT22;10589;53.636;10.012;2023-04-25T05:45:24;6.00;99.90
20858;DHT22;10589;53.636;10.012;2023-04-25T05:47:49;6.10;99.90
20858;DHT22;10589;53.636;10.012;2023-04-25T05:50:15;6.10;99.90
20858;DHT22;10589;53.636;10.012;2023-04-25T05:52:41;6.10;99.90
20858;DHT22;10589;53.636;10.012;2023-04-25T05:55:06;6.10;99.90
20858;DHT22;10589;53.636;10.012;2023-04-25T05:57:32;6.20;99.90
20858;DHT22;10589;53.636;10.012;2023-04-25T05:59:58;6.20;99.90
20858;DHT22;10589;53.636;10.012;2023-04-25T06:02:23;6.30;99.90
20858;DHT22;10589;53.636;10.012;2023-04-25T06:04:50;6.30;99.90
20858;DHT22;10589;53.636;10.012;2023-04-25T06:07:16;6.40;99.90
20858;DHT22;10589;53.636;10.012;2023-04-25T06:09:42;6.50;99.90
20858;DHT22;10589;53.636;10.012;2023-04-25T06:12:07;6.60;99.90
20858;DHT22;10589;53.636;10.012;2023-04-25T06:14:33;6.80;99.90
20858;DHT22;10589;53.636;10.012;2023-04-25T06:16:59;6.80;99.90
20858;DHT22;10589;53.636;10.012;2023-04-25T06:19:34;7.00;99.90
20858;DHT22;10589;53.636;10.012;2023-04-25T06:22:01;7.00;99.90
20858;DHT22;10589;53.636;10.012;2023-04-25T06:24:27;7.00;99.90
20858;DHT22;10589;53.636;10.012;2023-04-25T06:26:52;7.10;99.90
20858;DHT22;10589;53.636;10.012;2023-04-25T06:29:18;7.10;99.90
20858;DHT22;10589;53.636;10.012;2023-04-25T06:31:44;7.20;99.90
20858;DHT22;10589;53.636;10.012;2023-04-25T06:34:10;7.30;99.90
20858;DHT22;10589;53.636;10.012;2023-04-25T06:36:35;7.40;99.90
20858;DHT22;10589;53.636;10.012;2023-04-25T06:39:01;7.40;99.90
20858;DHT22;10589;53.636;10.012;2023-04-25T06:41:27;7.40;99.90
20858;DHT22;10589;53.636;10.012;2023-04-25T06:43:52;7.40;99.90
20858;DHT22;10589;53.636;10.012;2023-04-25T06:46:18;7.30;99.90
20858;DHT22;10589;53.636;10.012;2023-04-25T06:48:44;7.40;99.90
20858;DHT22;10589;53.636;10.012;2023-04-25T06:51:09;7.50;99.90
20858;DHT22;10589;53.636;10.012;2023-04-25T06:53:35;7.40;99.90
20858;DHT22;10589;53.636;10.012;2023-04-25T06:56:01;7.50;99.90
20858;DHT22;10589;53.636;10.012;2023-04-25T06:58:27;7.50;99.90
20858;DHT22;10589;53.636;10.012;2023-04-25T07:00:52;7.50;99.90
20858;DHT22;10589;53.636;10.012;2023-04-25T07:03:18;7.60;99.90
20858;DHT22;10589;53.636;10.012;2023-04-25T07:05:45;7.70;99.90
20858;DHT22;10589;53.636;10.012;2023-04-25T07:08:11;7.70;99.90
20858;DHT22;10589;53.636;10.012;2023-04-25T07:10:37;7.90;99.90
20858;DHT22;10589;53.636;10.012;2023-04-25T07:13:02;7.80;99.90
20858;DHT22;10589;53.636;10.012;2023-04-25T07:15:28;7.80;99.90
20858;DHT22;10589;53.636;10.012;2023-04-25T07:17:53;7.70;99.90
20858;DHT22;10589;53.636;10.012;2023-04-25T07:20:19;7.20;99.90
20858;DHT22;10589;53.636;10.012;2023-04-25T07:22:45;6.70;99.90
20858;DHT22;10589;53.636;10.012;2023-04-25T07:25:10;6.50;99.90
20858;DHT22;10589;53.636;10.012;2023-04-25T07:27:36;6.50;99.90
20858;DHT22;10589;53.636;10.012;2023-04-25T07:30:03;6.40;99.90
20858;DHT22;10589;53.636;10.012;2023-04-25T07:32:29;6.50;99.90
20858;DHT22;10589;53.636;10.012;2023-04-25T07:34:55;6.50;99.90
20858;DHT22;10589;53.636;10.012;2023-04-25T07:37:21;6.50;99.90
20858;DHT22;10589;53.636;10.012;2023-04-25T07:39:47;6.50;99.90
20858;DHT22;10589;53.636;10.012;2023-04-25T07:42:13;6.60;99.90
20858;DHT22;10589;53.636;10.012;2023-04-25T07:44:38;6.80;99.90
20858;DHT22;10589;53.636;10.012;2023-04-25T07:47:06;6.90;99.90
20858;DHT22;10589;53.636;10.012;2023-04-25T07:49:35;6.90;99.90
20858;DHT22;10589;53.636;10.012;2023-04-25T07:52:02;7.10;99.90
20858;DHT22;10589;53.636;10.012;2023-04-25T07:54:29;7.10;99.90
20858;DHT22;10589;53.636;10.012;2023-04-25T07:56:55;7.20;99.90
20858;DHT22;10589;53.636;10.012;2023-04-25T07:59:21;7.40;99.90
20858;DHT22;10589;53.636;10.012;2023-04-25T08:01:47;7.60;99.90
20858;DHT22;10589;53.636;10.012;2023-04-25T08:04:13;7.80;99.90
20858;DHT22;10589;53.636;10.012;2023-04-25T08:06:38;7.80;99.90
20858;DHT22;10589;53.636;10.012;2023-04-25T08:09:04;7.90;99.90
20858;DHT22;10589;53.636;10.012;2023-04-25T08:11:30;7.90;99.90
20858;DHT22;10589;53.636;10.012;2023-04-25T08:13:55;7.90;99.90
20858;DHT22;10589;53.636;10.012;2023-04-25T08:16:21;7.50;99.90
20858;DHT22;10589;53.636;10.012;2023-04-25T08:18:47;7.30;99.90
20858;DHT22;10589;53.636;10.012;2023-04-25T08:21:12;7.00;99.90
20858;DHT22;10589;53.636;10.012;2023-04-25T08:23:48;6.60;99.90
20858;DHT22;10589;53.636;10.012;2023-04-25T08:26:14;6.20;99.90
20858;DHT22;10589;53.636;10.012;2023-04-25T08:28:40;6.10;99.90
20858;DHT22;10589;53.636;10.012;2023-04-25T08:31:05;6.00;99.90
20858;DHT22;10589;53.636;10.012;2023-04-25T08:33:32;6.00;99.90
20858;DHT22;10589;53.636;10.012;2023-04-25T08:35:58;6.30;99.90
20858;DHT22;10589;53.636;10.012;2023-04-25T08:38:24;6.50;99.90
20858;DHT22;10589;53.636;10.012;2023-04-25T08:40:50;6.60;99.90
20858;DHT22;10589;53.636;10.012;2023-04-25T08:43:19;6.70;99.90
20858;DHT22;10589;53.636;10.012;2023-04-25T08:45:46;6.70;99.90
20858;DHT22;10589;53.636;10.012;2023-04-25T08:48:16;6.70;99.90
20858;DHT22;10589;53.636;10.012;2023-04-25T08:50:50;6.70;99.90
20858;DHT22;10589;53.636;10.012;2023-04-25T08:53:18;6.70;99.90
20858;DHT22;10589;53.636;10.012;2023-04-25T08:55:47;6.70;99.90
20858;DHT22;10589;53.636;10.012;2023-04-25T08:58:13;6.70;99.90
20858;DHT22;10589;53.636;10.012;2023-04-25T09:00:40;7.10;99.90
20858;DHT22;10589;53.636;10.012;2023-04-25T09:03:06;7.40;99.90
20858;DHT22;10589;53.636;10.012;2023-04-25T09:05:34;7.90;99.90
20858;DHT22;10589;53.636;10.012;2023-04-25T09:08:01;8.10;99.90
20858;DHT22;10589;53.636;10.012;2023-04-25T09:10:27;8.10;99.90
20858;DHT22;10589;53.636;10.012;2023-04-25T09:13:07;8.00;99.90
20858;DHT22;10589;53.636;10.012;2023-04-25T09:15:58;7.80;99.90
20858;DHT22;10589;53.636;10.012;2023-04-25T09:18:32;7.70;99.90
20858;DHT22;10589;53.636;10.012;2023-04-25T09:23:30;8.10;99.90
20858;DHT22;10589;53.636;10.012;2023-04-25T09:26:03;8.20;99.90
20858;DHT22;10589;53.636;10.012;2023-04-25T09:28:31;8.30;99.90
20858;DHT22;10589;53.636;10.012;2023-04-25T09:30:58;8.30;99.90
20858;DHT22;10589;53.636;10.012;2023-04-25T09:33:29;8.40;99.90
20858;DHT22;10589;53.636;10.012;2023-04-25T09:36:19;8.60;99.90
20858;DHT22;10589;53.636;10.012;2023-04-25T09:38:49;8.70;99.90
20858;DHT22;10589;53.636;10.012;2023-04-25T09:41:25;8.50;99.90
20858;DHT22;10589;53.636;10.012;2023-04-25T09:43:50;8.10;99.90
20858;DHT22;10589;53.636;10.012;2023-04-25T09:46:17;7.50;99.90
20858;DHT22;10589;53.636;10.012;2023-04-25T09:48:50;7.10;99.90
20858;DHT22;10589;53.636;10.012;2023-04-25T09:51:16;6.90;99.90
20858;DHT22;10589;53.636;10.012;2023-04-25T09:53:44;7.00;99.90
20858;DHT22;10589;53.636;10.012;2023-04-25T09:56:12;7.00;99.90
20858;DHT22;10589;53.636;10.012;2023-04-25T09:58:40;7.30;99.90
20858;DHT22;10589;53.636;10.012;2023-04-25T10:01:10;7.20;99.90
20858;DHT22;10589;53.636;10.012;2023-04-25T10:03:38;7.30;99.90
20858;DHT22;10589;53.636;10.012;2023-04-25T10:06:17;7.40;99.90
20858;DHT22;10589;53.636;10.012;2023-04-25T10:08:44;7.80;99.90
20858;DHT22;10589;53.636;10.012;2023-04-25T10:11:11;8.20;99.90
20858;DHT22;10589;53.636;10.012;2023-04-25T10:13:40;8.40;99.90
20858;DHT22;10589;53.636;10.012;2023-04-25T10:16:07;8.50;99.90
20858;DHT22;10589;53.636;10.012;2023-04-25T10:18:33;8.90;99.90
20858;DHT22;10589;53.636;10.012;2023-04-25T10:21:00;9.10;99.90
20858;DHT22;10589;53.636;10.012;2023-04-25T10:23:26;9.30;99.90
20858;DHT22;10589;53.636;10.012;2023-04-25T10:25:52;9.30;99.90
20858;DHT22;10589;53.636;10.012;2023-04-25T10:28:19;9.40;99.90
20858;DHT22;10589;53.636;10.012;2023-04-25T10:31:04;9.40;99.90
20858;DHT22;10589;53.636;10.012;2023-04-25T10:33:35;9.50;99.90
20858;DHT22;10589;53.636;10.012;2023-04-25T10:36:18;9.50;99.90
20858;DHT22;10589;53.636;10.012;2023-04-25T10:38:45;9.60;99.90
20858;DHT22;10589;53.636;10.012;2023-04-25T10:41:12;9.70;99.90
20858;DHT22;10589;53.636;10.012;2023-04-25T10:46:17;10.10;99.90
20858;DHT22;10589;53.636;10.012;2023-04-25T10:48:49;10.40;99.90
20858;DHT22;10589;53.636;10.012;2023-04-25T10:51:25;10.40;99.90
20858;DHT22;10589;53.636;10.012;2023-04-25T10:56:28;10.30;99.90
20858;DHT22;10589;53.636;10.012;2023-04-25T10:59:05;10.10;99.90
20858;DHT22;10589;53.636;10.012;2023-04-25T11:01:45;10.00;99.90
20858;DHT22;10589;53.636;10.012;2023-04-25T11:04:21;10.10;99.90
20858;DHT22;10589;53.636;10.012;2023-04-25T11:09:23;10.20;99.90
20858;DHT22;10589;53.636;10.012;2023-04-25T11:11:56;9.70;99.90
20858;DHT22;10589;53.636;10.012;2023-04-25T11:14:22;9.30;99.90
20858;DHT22;10589;53.636;10.012;2023-04-25T11:16:56;8.80;99.90
20858;DHT22;10589;53.636;10.012;2023-04-25T11:19:22;8.30;99.90
20858;DHT22;10589;53.636;10.012;2023-04-25T11:21:48;8.10;99.90
20858;DHT22;10589;53.636;10.012;2023-04-25T11:24:16;8.00;99.90
20858;DHT22;10589;53.636;10.012;2023-04-25T11:26:51;7.90;99.90
20858;DHT22;10589;53.636;10.012;2023-04-25T11:29:16;8.20;99.90
20858;DHT22;10589;53.636;10.012;2023-04-25T11:31:45;8.50;99.90
20858;DHT22;10589;53.636;10.012;2023-04-25T11:34:11;8.80;99.90
20858;DHT22;10589;53.636;10.012;2023-04-25T11:36:38;8.80;99.90
20858;DHT22;10589;53.636;10.012;2023-04-25T11:39:04;8.80;99.90
20858;DHT22;10589;53.636;10.012;2023-04-25T11:41:31;8.80;99.90
20858;DHT22;10589;53.636;10.012;2023-04-25T11:43:57;8.90;99.90
20858;DHT22;10589;53.636;10.012;2023-04-25T11:46:22;9.30;99.90
20858;DHT22;10589;53.636;10.012;2023-04-25T11:48:48;9.70;99.90
20858;DHT22;10589;53.636;10.012;2023-04-25T11:51:16;10.30;99.90
20858;DHT22;10589;53.636;10.012;2023-04-25T11:53:44;10.60;99.90
20858;DHT22;10589;53.636;10.012;2023-04-25T11:56:10;10.90;99.90
20858;DHT22;10589;53.636;10.012;2023-04-25T11:58:55;11.10;99.90
20858;DHT22;10589;53.636;10.012;2023-04-25T12:01:30;11.30;99.90
20858;DHT22;10589;53.636;10.012;2023-04-25T12:03:57;11.20;99.90
20858;DHT22;10589;53.636;10.012;2023-04-25T12:06:29;11.10;99.90
20858;DHT22;10589;53.636;10.012;2023-04-25T12:09:02;11.20;99.90
20858;DHT22;10589;53.636;10.012;2023-04-25T12:11:30;11.50;99.90
20858;DHT22;10589;53.636;10.012;2023-04-25T12:14:02;11.60;99.90
20858;DHT22;10589;53.636;10.012;2023-04-25T12:16:28;11.50;99.90
20858;DHT22;10589;53.636;10.012;2023-04-25T12:18:55;11.50;99.90
20858;DHT22;10589;53.636;10.012;2023-04-25T12:21:22;11.50;99.90
20858;DHT22;10589;53.636;10.012;2023-04-25T12:23:48;11.60;99.90
20858;DHT22;10589;53.636;10.012;2023-04-25T12:26:18;11.80;99.90
20858;DHT22;10589;53.636;10.012;2023-04-25T12:28:46;12.00;99.90
20858;DHT22;10589;53.636;10.012;2023-04-25T12:31:13;12.30;99.90
20858;DHT22;10589;53.636;10.012;2023-04-25T12:33:40;12.60;99.90
20858;DHT22;10589;53.636;10.012;2023-04-25T12:36:08;12.60;99.90
20858;DHT22;10589;53.636;10.012;2023-04-25T12:38:38;12.30;99.90
20858;DHT22;10589;53.636;10.012;2023-04-25T12:41:04;12.10;99.90
20858;DHT22;10589;53.636;10.012;2023-04-25T12:43:30;12.00;99.90
20858;DHT22;10589;53.636;10.012;2023-04-25T12:45:56;13.00;99.90
20858;DHT22;10589;53.636;10.012;2023-04-25T12:48:22;13.10;99.90
20858;DHT22;10589;53.636;10.012;2023-04-25T12:50:50;12.80;99.90
20858;DHT22;10589;53.636;10.012;2023-04-25T12:53:20;12.10;99.90
20858;DHT22;10589;53.636;10.012;2023-04-25T12:55:46;11.50;99.90
20858;DHT22;10589;53.636;10.012;2023-04-25T12:58:13;11.30;99.90
20858;DHT22;10589;53.636;10.012;2023-04-25T13:00:40;11.30;99.90
20858;DHT22;10589;53.636;10.012;2023-04-25T13:03:05;11.60;99.90
20858;DHT22;10589;53.636;10.012;2023-04-25T13:05:31;12.20;99.90
20858;DHT22;10589;53.636;10.012;2023-04-25T13:07:57;12.40;99.90
20858;DHT22;10589;53.636;10.012;2023-04-25T13:10:22;12.40;99.90
20858;DHT22;10589;53.636;10.012;2023-04-25T13:12:48;12.60;99.90
20858;DHT22;10589;53.636;10.012;2023-04-25T13:15:14;13.80;99.90
20858;DHT22;10589;53.636;10.012;2023-04-25T13:17:41;13.70;99.90
20858;DHT22;10589;53.636;10.012;2023-04-25T13:20:07;12.90;99.90
20858;DHT22;10589;53.636;10.012;2023-04-25T13:22:37;11.60;99.90
20858;DHT22;10589;53.636;10.012;2023-04-25T13:25:04;10.70;99.90
20858;DHT22;10589;53.636;10.012;2023-04-25T13:27:30;10.50;99.90
20858;DHT22;10589;53.636;10.012;2023-04-25T13:29:58;10.70;99.90
20858;DHT22;10589;53.636;10.012;2023-04-25T13:32:23;11.70;99.90
20858;DHT22;10589;53.636;10.012;2023-04-25T13:34:50;13.40;99.90
20858;DHT22;10589;53.636;10.012;2023-04-25T13:37:16;14.30;99.90
20858;DHT22;10589;53.636;10.012;2023-04-25T13:39:41;14.90;99.90
20858;DHT22;10589;53.636;10.012;2023-04-25T13:42:07;16.10;99.90
20858;DHT22;10589;53.636;10.012;2023-04-25T13:44:32;15.20;99.90
20858;DHT22;10589;53.636;10.012;2023-04-25T13:46:58;13.80;99.90
20858;DHT22;10589;53.636;10.012;2023-04-25T13:49:26;11.90;99.90
20858;DHT22;10589;53.636;10.012;2023-04-25T13:51:51;10.50;99.90
20858;DHT22;10589;53.636;10.012;2023-04-25T13:54:17;9.50;99.90
20858;DHT22;10589;53.636;10.012;2023-04-25T13:56:43;9.20;99.90
20858;DHT22;10589;53.636;10.012;2023-04-25T13:59:08;8.70;99.90
20858;DHT22;10589;53.636;10.012;2023-04-25T14:01:34;8.60;99.90
20858;DHT22;10589;53.636;10.012;2023-04-25T14:04:01;8.90;99.90
20858;DHT22;10589;53.636;10.012;2023-04-25T14:06:29;9.20;99.90
20858;DHT22;10589;53.636;10.012;2023-04-25T14:08:54;9.70;99.90
20858;DHT22;10589;53.636;10.012;2023-04-25T14:11:20;10.70;99.90
20858;DHT22;10589;53.636;10.012;2023-04-25T14:13:46;11.40;99.90
20858;DHT22;10589;53.636;10.012;2023-04-25T14:16:11;12.00;99.90
20858;DHT22;10589;53.636;10.012;2023-04-25T14:18:37;13.10;99.90
20858;DHT22;10589;53.636;10.012;2023-04-25T14:21:02;13.80;99.90
20858;DHT22;10589;53.636;10.012;2023-04-25T14:23:28;13.70;99.90
20858;DHT22;10589;53.636;10.012;2023-04-25T14:25:54;13.20;99.90
20858;DHT22;10589;53.636;10.012;2023-04-25T14:28:19;12.30;99.90
20858;DHT22;10589;53.636;10.012;2023-04-25T14:30:45;11.90;99.90
20858;DHT22;10589;53.636;10.012;2023-04-25T14:33:11;11.80;99.90
20858;DHT22;10589;53.636;10.012;2023-04-25T14:35:37;11.50;99.90
20858;DHT22;10589;53.636;10.012;2023-04-25T14:38:03;11.40;99.90
20858;DHT22;10589;53.636;10.012;2023-04-25T14:40:28;11.80;99.90
20858;DHT22;10589;53.636;10.012;2023-04-25T14:42:54;12.00;99.90
20858;DHT22;10589;53.636;10.012;2023-04-25T14:45:20;11.80;99.90
20858;DHT22;10589;53.636;10.012;2023-04-25T14:47:45;11.50;99.90
20858;DHT22;10589;53.636;10.012;2023-04-25T14:50:11;11.20;99.90
20858;DHT22;10589;53.636;10.012;2023-04-25T14:52:37;11.90;99.90
20858;DHT22;10589;53.636;10.012;2023-04-25T14:55:03;12.70;99.90
20858;DHT22;10589;53.636;10.012;2023-04-25T14:57:33;13.20;99.90
20858;DHT22;10589;53.636;10.012;2023-04-25T14:59:59;13.40;99.90
20858;DHT22;10589;53.636;10.012;2023-04-25T15:02:24;13.40;99.90
20858;DHT22;10589;53.636;10.012;2023-04-25T15:04:51;13.00;99.90
20858;DHT22;10589;53.636;10.012;2023-04-25T15:07:17;12.10;99.90
20858;DHT22;10589;53.636;10.012;2023-04-25T15:09:42;11.20;99.90
20858;DHT22;10589;53.636;10.012;2023-04-25T15:12:08;10.90;99.90
20858;DHT22;10589;53.636;10.012;2023-04-25T15:14:34;10.70;99.90
20858;DHT22;10589;53.636;10.012;2023-04-25T15:17:00;10.50;99.90
20858;DHT22;10589;53.636;10.012;2023-04-25T15:19:26;10.50;99.90
20858;DHT22;10589;53.636;10.012;2023-04-25T15:21:51;10.50;99.90
20858;DHT22;10589;53.636;10.012;2023-04-25T15:24:17;10.90;99.90
20858;DHT22;10589;53.636;10.012;2023-04-25T15:26:43;12.10;99.90
20858;DHT22;10589;53.636;10.012;2023-04-25T15:29:10;13.40;99.90
20858;DHT22;10589;53.636;10.012;2023-04-25T15:31:37;14.20;99.90
20858;DHT22;10589;53.636;10.012;2023-04-25T15:34:03;14.40;99.90
20858;DHT22;10589;53.636;10.012;2023-04-25T15:36:29;13.60;99.90
20858;DHT22;10589;53.636;10.012;2023-04-25T15:38:55;12.90;99.90
20858;DHT22;10589;53.636;10.012;2023-04-25T15:41:21;12.70;99.90
20858;DHT22;10589;53.636;10.012;2023-04-25T15:43:47;12.60;99.90
20858;DHT22;10589;53.636;10.012;2023-04-25T15:46:13;12.70;99.90
20858;DHT22;10589;53.636;10.012;2023-04-25T15:48:39;13.20;99.90
20858;DHT22;10589;53.636;10.012;2023-04-25T15:51:04;13.90;99.90
20858;DHT22;10589;53.636;10.012;2023-04-25T15:53:30;14.70;99.90
20858;DHT22;10589;53.636;10.012;2023-04-25T15:55:56;15.10;99.90
20858;DHT22;10589;53.636;10.012;2023-04-25T15:58:22;14.30;99.90
20858;DHT22;10589;53.636;10.012;2023-04-25T16:00:47;13.10;99.90
20858;DHT22;10589;53.636;10.012;2023-04-25T16:03:15;12.20;99.90
20858;DHT22;10589;53.636;10.012;2023-04-25T16:05:40;11.40;99.90
20858;DHT22;10589;53.636;10.012;2023-04-25T16:08:06;10.80;99.90
20858;DHT22;10589;53.636;10.012;2023-04-25T16:10:32;10.50;99.90
20858;DHT22;10589;53.636;10.012;2023-04-25T16:12:58;10.40;99.90
20858;DHT22;10589;53.636;10.012;2023-04-25T16:15:24;11.30;99.90
20858;DHT22;10589;53.636;10.012;2023-04-25T16:17:49;12.30;99.90
20858;DHT22;10589;53.636;10.012;2023-04-25T16:20:16;13.10;99.90
20858;DHT22;10589;53.636;10.012;2023-04-25T16:22:42;12.90;99.90
20858;DHT22;10589;53.636;10.012;2023-04-25T16:25:08;13.50;99.90
20858;DHT22;10589;53.636;10.012;2023-04-25T16:27:34;14.70;99.90
20858;DHT22;10589;53.636;10.012;2023-04-25T16:30:00;14.70;99.90
20858;DHT22;10589;53.636;10.012;2023-04-25T16:32:26;15.10;99.90
20858;DHT22;10589;53.636;10.012;2023-04-25T16:34:52;14.80;99.90
20858;DHT22;10589;53.636;10.012;2023-04-25T16:37:18;13.90;99.90
20858;DHT22;10589;53.636;10.012;2023-04-25T16:39:43;12.90;99.90
20858;DHT22;10589;53.636;10.012;2023-04-25T16:42:09;12.00;99.90
20858;DHT22;10589;53.636;10.012;2023-04-25T16:44:35;11.40;99.90
20858;DHT22;10589;53.636;10.012;2023-04-25T16:47:00;10.80;99.90
20858;DHT22;10589;53.636;10.012;2023-04-25T16:49:27;10.70;99.90
20858;DHT22;10589;53.636;10.012;2023-04-25T16:51:52;10.90;99.90
20858;DHT22;10589;53.636;10.012;2023-04-25T16:54:18;10.80;99.90
20858;DHT22;10589;53.636;10.012;2023-04-25T16:56:44;11.20;99.90
20858;DHT22;10589;53.636;10.012;2023-04-25T16:59:09;11.00;99.90
20858;DHT22;10589;53.636;10.012;2023-04-25T17:01:35;10.60;99.90
20858;DHT22;10589;53.636;10.012;2023-04-25T17:04:01;10.20;99.90
20858;DHT22;10589;53.636;10.012;2023-04-25T17:06:26;9.80;99.90
20858;DHT22;10589;53.636;10.012;2023-04-25T17:08:53;9.30;99.90
20858;DHT22;10589;53.636;10.012;2023-04-25T17:11:19;8.80;99.90
20858;DHT22;10589;53.636;10.012;2023-04-25T17:13:45;8.60;99.90
20858;DHT22;10589;53.636;10.012;2023-04-25T17:16:11;8.40;99.90
20858;DHT22;10589;53.636;10.012;2023-04-25T17:18:42;8.20;99.90
20858;DHT22;10589;53.636;10.012;2023-04-25T17:21:08;8.10;99.90
20858;DHT22;10589;53.636;10.012;2023-04-25T17:23:34;8.00;99.90
20858;DHT22;10589;53.636;10.012;2023-04-25T17:26:00;7.90;99.90
20858;DHT22;10589;53.636;10.012;2023-04-25T17:28:26;7.70;99.90
20858;DHT22;10589;53.636;10.012;2023-04-25T17:30:52;7.50;99.90
20858;DHT22;10589;53.636;10.012;2023-04-25T17:33:17;7.20;99.90
20858;DHT22;10589;53.636;10.012;2023-04-25T17:35:43;7.10;99.90
20858;DHT22;10589;53.636;10.012;2023-04-25T17:38:09;6.90;99.90
20858;DHT22;10589;53.636;10.012;2023-04-25T17:40:34;6.80;99.90
20858;DHT22;10589;53.636;10.012;2023-04-25T17:43:00;6.80;99.90
20858;DHT22;10589;53.636;10.012;2023-04-25T17:45:25;6.90;99.90
20858;DHT22;10589;53.636;10.012;2023-04-25T17:47:52;6.80;99.90
20858;DHT22;10589;53.636;10.012;2023-04-25T17:50:18;6.80;99.90
20858;DHT22;10589;53.636;10.012;2023-04-25T17:52:43;6.70;99.90
20858;DHT22;10589;53.636;10.012;2023-04-25T17:55:12;6.60;99.90
20858;DHT22;10589;53.636;10.012;2023-04-25T17:57:38;6.40;99.90
20858;DHT22;10589;53.636;10.012;2023-04-25T18:00:04;6.30;99.90
20858;DHT22;10589;53.636;10.012;2023-04-25T18:02:32;6.20;99.90
20858;DHT22;10589;53.636;10.012;2023-04-25T18:04:57;6.20;99.90
20858;DHT22;10589;53.636;10.012;2023-04-25T18:07:23;6.10;99.90
20858;DHT22;10589;53.636;10.012;2023-04-25T18:09:48;6.10;99.90
20858;DHT22;10589;53.636;10.012;2023-04-25T18:12:14;6.00;99.90
20858;DHT22;10589;53.636;10.012;2023-04-25T18:14:40;5.90;99.90
20858;DHT22;10589;53.636;10.012;2023-04-25T18:17:05;5.90;99.90
20858;DHT22;10589;53.636;10.012;2023-04-25T18:19:33;5.90;99.90
20858;DHT22;10589;53.636;10.012;2023-04-25T18:21:59;5.80;99.90
20858;DHT22;10589;53.636;10.012;2023-04-25T18:24:26;5.90;99.90
20858;DHT22;10589;53.636;10.012;2023-04-25T18:26:53;5.80;99.90
20858;DHT22;10589;53.636;10.012;2023-04-25T18:29:20;5.80;99.90
20858;DHT22;10589;53.636;10.012;2023-04-25T18:31:46;5.70;99.90
20858;DHT22;10589;53.636;10.012;2023-04-25T18:34:12;5.70;99.90
20858;DHT22;10589;53.636;10.012;2023-04-25T18:36:39;5.70;99.90
20858;DHT22;10589;53.636;10.012;2023-04-25T18:39:05;5.70;99.90
20858;DHT22;10589;53.636;10.012;2023-04-25T18:41:34;5.70;99.90
20858;DHT22;10589;53.636;10.012;2023-04-25T18:44:00;5.70;99.90
20858;DHT22;10589;53.636;10.012;2023-04-25T18:46:29;5.80;99.90
20858;DHT22;10589;53.636;10.012;2023-04-25T18:48:55;5.80;99.90
20858;DHT22;10589;53.636;10.012;2023-04-25T18:51:21;5.80;99.90
20858;DHT22;10589;53.636;10.012;2023-04-25T18:53:56;5.70;99.90
20858;DHT22;10589;53.636;10.012;2023-04-25T18:56:22;5.60;99.90
20858;DHT22;10589;53.636;10.012;2023-04-25T18:58:50;5.60;99.90
20858;DHT22;10589;53.636;10.012;2023-04-25T19:01:16;5.60;99.90
20858;DHT22;10589;53.636;10.012;2023-04-25T19:03:43;5.70;99.90
20858;DHT22;10589;53.636;10.012;2023-04-25T19:06:09;5.60;99.90
20858;DHT22;10589;53.636;10.012;2023-04-25T19:08:35;5.70;99.90
20858;DHT22;10589;53.636;10.012;2023-04-25T19:11:00;5.70;99.90
20858;DHT22;10589;53.636;10.012;2023-04-25T19:13:26;5.70;99.90
20858;DHT22;10589;53.636;10.012;2023-04-25T19:15:56;5.60;99.90
20858;DHT22;10589;53.636;10.012;2023-04-25T19:18:22;5.70;99.90